sensor_id;sensor_type;location;lat;lon;timestamp;temperature;humidity
5870;DHT22;2961;47.702;9.410;2023-08-24T00:00:15;24.50;99.90
5870;DHT22;2961;47.702;9.410;2023-08-24T00:02:43;24.50;99.90
5870;DHT22;2961;47.702;9.410;2023-08-24T00:05:10;24.50;99.90
5870;DHT22;2961;47.702;9.410;2023-08-24T00:07:37;24.40;99.90
5870;DHT22;2961;47.702;9.410;2023-08-24T00:10:04;24.40;99.90
5870;DHT22;2961;47.702;9.410;2023-08-24T00:12:33;24.40;99.90
5870;DHT22;2961;47.702;9.410;2023-08-24T00:15:01;24.30;99.90
5870;DHT22;2961;47.702;9.410;2023-08-24T00:17:28;24.30;99.90
5870;DHT22;2961;47.702;9.410;2023-08-24T00:19:55;24.20;99.90
5870;DHT22;2961;47.702;9.410;2023-08-24T00:22:22;24.20;99.90
5870;DHT22;2961;47.702;9.410;2023-08-24T00:24:48;24.20;99.90
5870;DHT22;2961;47.702;9.410;2023-08-24T00:27:15;24.20;99.90
5870;DHT22;2961;47.702;9.410;2023-08-24T00:29:43;24.10;99.90
5870;DHT22;2961;47.702;9.410;2023-08-24T00:32:10;24.00;99.90
5870;DHT22;2961;47.702;9.410;2023-08-24T00:34:37;24.00;99.90
5870;DHT22;2961;47.702;9.410;2023-08-24T00:37:04;24.00;99.90
5870;DHT22;2961;47.702;9.410;2023-08-24T00:39:31;24.00;99.90
5870;DHT22;2961;47.702;9.410;2023-08-24T00:41:58;23.90;99.90
5870;DHT22;2961;47.702;9.410;2023-08-24T00:44:25;23.80;99.90
5870;DHT22;2961;47.702;9.410;2023-08-24T00:46:53;23.70;99.90
5870;DHT22;2961;47.702;9.410;2023-08-24T00:49:21;23.70;99.90
5870;DHT22;2961;47.702;9.410;2023-08-24T00:51:48;23.70;99.90
5870;DHT22;2961;47.702;9.410;2023-08-24T00:54:15;23.70;99.90
5870;DHT22;2961;47.702;9.410;2023-08-24T00:56:43;23.70;99.90
5870;DHT22;2961;47.702;9.410;2023-08-24T00:59:10;23.70;99.90
5870;DHT22;2961;47.702;9.410;2023-08-24T01:01:39;23.70;99.90
5870;DHT22;2961;47.702;9.410;2023-08-24T01:04:07;23.70;99.90
5870;DHT22;2961;47.702;9.410;2023-08-24T01:06:36;23.60;99.90
5870;DHT22;2961;47.702;9.410;2023-08-24T01:09:03;23.60;99.90
5870;DHT22;2961;47.702;9.410;2023-08-24T01:11:41;23.60;99.90
5870;DHT22;2961;47.702;9.410;2023-08-24T01:14:18;23.60;99.90
5870;DHT22;2961;47.702;9.410;2023-08-24T01:16:48;23.60;99.90
5870;DHT22;2961;47.702;9.410;2023-08-24T01:19:30;23.60;99.90
5870;DHT22;2961;47.702;9.410;2023-08-24T01:22:01;23.60;99.90
5870;DHT22;2961;47.702;9.410;2023-08-24T01:24:34;23.60;99.90
5870;DHT22;2961;47.702;9.410;2023-08-24T01:27:04;23.50;99.90
5870;DHT22;2961;47.702;9.410;2023-08-24T01:29:31;23.50;99.90
5870;DHT22;2961;47.702;9.410;2023-08-24T01:31:58;23.50;99.90
5870;DHT22;2961;47.702;9.410;2023-08-24T01:34:25;23.40;99.90
5870;DHT22;2961;47.702;9.410;2023-08-24T01:36:52;23.30;99.90
5870;DHT22;2961;47.702;9.410;2023-08-24T01:39:29;23.30;99.90
5870;DHT22;2961;47.702;9.410;2023-08-24T01:42:02;23.20;99.90
5870;DHT22;2961;47.702;9.410;2023-08-24T01:44:35;23.10;99.90
5870;DHT22;2961;47.702;9.410;2023-08-24T01:47:05;23.10;99.90
5870;DHT22;2961;47.702;9.410;2023-08-24T01:49:33;23.10;99.90
5870;DHT22;2961;47.702;9.410;2023-08-24T01:52:01;23.10;99.90
5870;DHT22;2961;47.702;9.410;2023-08-24T01:54:28;23.00;99.90
5870;DHT22;2961;47.702;9.410;2023-08-24T01:56:55;22.90;99.90
5870;DHT22;2961;47.702;9.410;2023-08-24T01:59:22;22.70;99.90
5870;DHT22;2961;47.702;9.410;2023-08-24T02:01:50;22.70;99.90
5870;DHT22;2961;47.702;9.410;2023-08-24T02:04:17;22.70;99.90
5870;DHT22;2961;47.702;9.410;2023-08-24T02:06:43;22.60;99.90
5870;DHT22;2961;47.702;9.410;2023-08-24T02:09:10;22.60;99.90
5870;DHT22;2961;47.702;9.410;2023-08-24T02:11:37;22.50;99.90
5870;DHT22;2961;47.702;9.410;2023-08-24T02:14:04;22.50;99.90
5870;DHT22;2961;47.702;9.410;2023-08-24T02:16:31;22.50;99.90
5870;DHT22;2961;47.702;9.410;2023-08-24T02:19:00;22.40;99.90
5870;DHT22;2961;47.702;9.410;2023-08-24T02:21:26;22.30;99.90
5870;DHT22;2961;47.702;9.410;2023-08-24T02:23:53;22.20;99.90
5870;DHT22;2961;47.702;9.410;2023-08-24T02:26:20;22.20;99.90
5870;DHT22;2961;47.702;9.410;2023-08-24T02:28:47;22.20;99.90
5870;DHT22;2961;47.702;9.410;2023-08-24T02:31:13;22.10;99.90
5870;DHT22;2961;47.702;9.410;2023-08-24T02:33:41;22.00;99.90
5870;DHT22;2961;47.702;9.410;2023-08-24T02:36:09;21.90;99.90
5870;DHT22;2961;47.702;9.410;2023-08-24T02:38:36;21.90;99.90
5870;DHT22;2961;47.702;9.410;2023-08-24T02:41:04;21.80;99.90
5870;DHT22;2961;47.702;9.410;2023-08-24T02:43:31;21.80;99.90
5870;DHT22;2961;47.702;9.410;2023-08-24T02:46:01;21.80;99.90
5870;DHT22;2961;47.702;9.410;2023-08-24T02:48:29;21.70;99.90
5870;DHT22;2961;47.702;9.410;2023-08-24T02:50:57;21.70;99.90
5870;DHT22;2961;47.702;9.410;2023-08-24T02:53:25;21.60;99.90
5870;DHT22;2961;47.702;9.410;2023-08-24T02:55:52;21.50;99.90
5870;DHT22;2961;47.702;9.410;2023-08-24T02:58:20;21.50;99.90
5870;DHT22;2961;47.702;9.410;2023-08-24T03:00:47;21.40;99.90
5870;DHT22;2961;47.702;9.410;2023-08-24T03:03:14;21.20;99.90
5870;DHT22;2961;47.702;9.410;2023-08-24T03:05:41;21.10;99.90
5870;DHT22;2961;47.702;9.410;2023-08-24T03:08:08;20.90;99.90
5870;DHT22;2961;47.702;9.410;2023-08-24T03:10:36;20.80;99.90
5870;DHT22;2961;47.702;9.410;2023-08-24T03:13:03;20.80;99.90
5870;DHT22;2961;47.702;9.410;2023-08-24T03:15:30;20.70;99.90
5870;DHT22;2961;47.702;9.410;2023-08-24T03:17:57;20.70;99.90
5870;DHT22;2961;47.702;9.410;2023-08-24T03:20:24;20.50;99.90
5870;DHT22;2961;47.702;9.410;2023-08-24T03:22:51;20.40;99.90
5870;DHT22;2961;47.702;9.410;2023-08-24T03:25:17;20.30;99.90
5870;DHT22;2961;47.702;9.410;2023-08-24T03:27:46;20.30;99.90
5870;DHT22;2961;47.702;9.410;2023-08-24T03:30:13;20.20;99.90
5870;DHT22;2961;47.702;9.410;2023-08-24T03:32:40;20.10;99.90
5870;DHT22;2961;47.702;9.410;2023-08-24T03:35:07;20.10;99.90
5870;DHT22;2961;47.702;9.410;2023-08-24T03:37:34;20.10;99.90
5870;DHT22;2961;47.702;9.410;2023-08-24T03:40:01;20.10;99.90
5870;DHT22;2961;47.702;9.410;2023-08-24T03:42:29;20.00;99.90
5870;DHT22;2961;47.702;9.410;2023-08-24T03:44:59;19.90;99.90
5870;DHT22;2961;47.702;9.410;2023-08-24T03:47:26;19.70;99.90
5870;DHT22;2961;47.702;9.410;2023-08-24T03:49:53;19.60;99.90
5870;DHT22;2961;47.702;9.410;2023-08-24T03:52:20;19.50;99.90
5870;DHT22;2961;47.702;9.410;2023-08-24T03:54:47;19.50;99.90
5870;DHT22;2961;47.702;9.410;2023-08-24T03:57:14;19.50;99.90
5870;DHT22;2961;47.702;9.410;2023-08-24T03:59:41;19.50;99.90
5870;DHT22;2961;47.702;9.410;2023-08-24T04:02:09;19.50;99.90
5870;DHT22;2961;47.702;9.410;2023-08-24T04:04:36;19.60;99.90
5870;DHT22;2961;47.702;9.410;2023-08-24T04:07:03;19.50;99.90
5870;DHT22;2961;47.702;9.410;2023-08-24T04:09:29;19.50;99.90
5870;DHT22;2961;47.702;9.410;2023-08-24T04:11:56;19.40;99.90
5870;DHT22;2961;47.702;9.410;2023-08-24T04:14:23;19.30;99.90
5870;DHT22;2961;47.702;9.410;2023-08-24T04:16:50;19.30;99.90
5870;DHT22;2961;47.702;9.410;2023-08-24T04:19:19;19.30;99.90
5870;DHT22;2961;47.702;9.410;2023-08-24T04:21:45;19.30;99.90
5870;DHT22;2961;47.702;9.410;2023-08-24T04:24:12;19.30;99.90
5870;DHT22;2961;47.702;9.410;2023-08-24T04:26:39;19.30;99.90
5870;DHT22;2961;47.702;9.410;2023-08-24T04:29:06;19.20;99.90
5870;DHT22;2961;47.702;9.410;2023-08-24T04:31:32;19.10;99.90
5870;DHT22;2961;47.702;9.410;2023-08-24T04:33:59;19.00;99.90
5870;DHT22;2961;47.702;9.410;2023-08-24T04:36:27;19.00;99.90
5870;DHT22;2961;47.702;9.410;2023-08-24T04:38:54;19.00;99.90
5870;DHT22;2961;47.702;9.410;2023-08-24T04:41:21;19.10;99.90
5870;DHT22;2961;47.702;9.410;2023-08-24T04:43:48;19.00;99.90
5870;DHT22;2961;47.702;9.410;2023-08-24T04:46:15;18.90;99.90
5870;DHT22;2961;47.702;9.410;2023-08-24T04:48:41;18.80;99.90
5870;DHT22;2961;47.702;9.410;2023-08-24T04:51:08;18.90;99.90
5870;DHT22;2961;47.702;9.410;2023-08-24T04:53:36;18.90;99.90
5870;DHT22;2961;47.702;9.410;2023-08-24T04:56:03;18.90;99.90
5870;DHT22;2961;47.702;9.410;2023-08-24T04:58:33;19.00;99.90
5870;DHT22;2961;47.702;9.410;2023-08-24T05:01:00;19.10;99.90
5870;DHT22;2961;47.702;9.410;2023-08-24T05:03:27;19.10;99.90
5870;DHT22;2961;47.702;9.410;2023-08-24T05:05:53;19.10;99.90
5870;DHT22;2961;47.702;9.410;2023-08-24T05:08:20;19.20;99.90
5870;DHT22;2961;47.702;9.410;2023-08-24T05:10:48;19.30;99.90
5870;DHT22;2961;47.702;9.410;2023-08-24T05:13:15;19.40;99.90
5870;DHT22;2961;47.702;9.410;2023-08-24T05:15:42;19.60;99.90
5870;DHT22;2961;47.702;9.410;2023-08-24T05:18:09;19.80;99.90
5870;DHT22;2961;47.702;9.410;2023-08-24T05:20:35;19.90;99.90
5870;DHT22;2961;47.702;9.410;2023-08-24T05:23:02;20.00;99.90
5870;DHT22;2961;47.702;9.410;2023-08-24T05:25:29;20.10;99.90
5870;DHT22;2961;47.702;9.410;2023-08-24T05:27:57;20.30;99.90
5870;DHT22;2961;47.702;9.410;2023-08-24T05:30:24;20.50;99.90
5870;DHT22;2961;47.702;9.410;2023-08-24T05:32:54;20.60;99.90
5870;DHT22;2961;47.702;9.410;2023-08-24T05:35:21;20.80;99.90
5870;DHT22;2961;47.702;9.410;2023-08-24T05:37:48;20.90;99.90
5870;DHT22;2961;47.702;9.410;2023-08-24T05:40:14;21.00;99.90
5870;DHT22;2961;47.702;9.410;2023-08-24T05:42:41;21.10;99.90
5870;DHT22;2961;47.702;9.410;2023-08-24T05:45:10;21.30;99.90
5870;DHT22;2961;47.702;9.410;2023-08-24T05:47:37;21.60;99.90
5870;DHT22;2961;47.702;9.410;2023-08-24T05:50:05;21.80;99.90
5870;DHT22;2961;47.702;9.410;2023-08-24T05:52:32;22.00;99.90
5870;DHT22;2961;47.702;9.410;2023-08-24T05:54:59;22.50;99.90
5870;DHT22;2961;47.702;9.410;2023-08-24T05:57:25;23.00;99.90
5870;DHT22;2961;47.702;9.410;2023-08-24T05:59:52;23.40;99.90
5870;DHT22;2961;47.702;9.410;2023-08-24T06:02:20;23.60;99.90
5870;DHT22;2961;47.702;9.410;2023-08-24T06:04:47;23.90;99.90
5870;DHT22;2961;47.702;9.410;2023-08-24T06:07:16;24.30;99.90
5870;DHT22;2961;47.702;9.410;2023-08-24T06:09:43;24.60;99.90
5870;DHT22;2961;47.702;9.410;2023-08-24T06:12:10;24.80;99.90
5870;DHT22;2961;47.702;9.410;2023-08-24T06:14:37;24.90;99.90
5870;DHT22;2961;47.702;9.410;2023-08-24T06:17:03;24.90;99.90
5870;DHT22;2961;47.702;9.410;2023-08-24T06:19:32;25.10;99.90
5870;DHT22;2961;47.702;9.410;2023-08-24T06:21:58;25.30;99.90
5870;DHT22;2961;47.702;9.410;2023-08-24T06:24:25;25.60;99.90
5870;DHT22;2961;47.702;9.410;2023-08-24T06:26:52;25.80;99.90
5870;DHT22;2961;47.702;9.410;2023-08-24T06:29:19;25.80;99.90
5870;DHT22;2961;47.702;9.410;2023-08-24T06:31:45;25.80;99.90
5870;DHT22;2961;47.702;9.410;2023-08-24T06:34:12;25.90;99.90
5870;DHT22;2961;47.702;9.410;2023-08-24T06:36:40;26.00;99.90
5870;DHT22;2961;47.702;9.410;2023-08-24T06:39:07;25.90;99.90
5870;DHT22;2961;47.702;9.410;2023-08-24T06:41:35;26.00;99.90
5870;DHT22;2961;47.702;9.410;2023-08-24T06:44:02;26.20;99.90
5870;DHT22;2961;47.702;9.410;2023-08-24T06:46:29;26.40;99.90
5870;DHT22;2961;47.702;9.410;2023-08-24T06:48:56;26.90;99.90
5870;DHT22;2961;47.702;9.410;2023-08-24T06:53:51;27.20;99.90
5870;DHT22;2961;47.702;9.410;2023-08-24T06:56:18;27.20;99.90
5870;DHT22;2961;47.702;9.410;2023-08-24T07:01:12;28.40;99.90
5870;DHT22;2961;47.702;9.410;2023-08-24T07:03:39;29.30;99.90
5870;DHT22;2961;47.702;9.410;2023-08-24T07:06:06;30.30;99.90
5870;DHT22;2961;47.702;9.410;2023-08-24T07:08:33;31.10;98.40
5870;DHT22;2961;47.702;9.410;2023-08-24T07:11:01;31.70;96.20
5870;DHT22;2961;47.702;9.410;2023-08-24T07:13:28;32.00;94.60
5870;DHT22;2961;47.702;9.410;2023-08-24T07:15:55;32.60;93.40
5870;DHT22;2961;47.702;9.410;2023-08-24T07:18:22;33.10;91.50
5870;DHT22;2961;47.702;9.410;2023-08-24T07:20:49;33.50;90.50
5870;DHT22;2961;47.702;9.410;2023-08-24T07:23:15;33.80;89.10
5870;DHT22;2961;47.702;9.410;2023-08-24T07:25:42;32.80;87.60
5870;DHT22;2961;47.702;9.410;2023-08-24T07:28:10;32.20;91.00
5870;DHT22;2961;47.702;9.410;2023-08-24T07:30:37;31.90;91.40
5870;DHT22;2961;47.702;9.410;2023-08-24T07:33:04;32.20;91.40
5870;DHT22;2961;47.702;9.410;2023-08-24T07:35:31;32.40;90.90
5870;DHT22;2961;47.702;9.410;2023-08-24T07:37:58;32.60;90.60
5870;DHT22;2961;47.702;9.410;2023-08-24T07:40:25;33.30;89.80
5870;DHT22;2961;47.702;9.410;2023-08-24T07:42:54;33.80;88.00
5870;DHT22;2961;47.702;9.410;2023-08-24T07:45:23;34.10;86.00
5870;DHT22;2961;47.702;9.410;2023-08-24T07:47:50;34.40;85.60
5870;DHT22;2961;47.702;9.410;2023-08-24T07:50:17;34.30;84.10
5870;DHT22;2961;47.702;9.410;2023-08-24T07:52:44;33.80;84.70
5870;DHT22;2961;47.702;9.410;2023-08-24T07:55:11;33.90;84.90
5870;DHT22;2961;47.702;9.410;2023-08-24T07:57:38;34.10;83.20
5870;DHT22;2961;47.702;9.410;2023-08-24T08:00:06;34.20;83.00
5870;DHT22;2961;47.702;9.410;2023-08-24T08:02:36;34.60;82.40
5870;DHT22;2961;47.702;9.410;2023-08-24T08:05:03;35.20;79.70
5870;DHT22;2961;47.702;9.410;2023-08-24T08:07:31;35.00;80.80
5870;DHT22;2961;47.702;9.410;2023-08-24T08:09:58;35.30;79.60
5870;DHT22;2961;47.702;9.410;2023-08-24T08:12:25;35.20;76.00
5870;DHT22;2961;47.702;9.410;2023-08-24T08:14:52;34.80;77.00
5870;DHT22;2961;47.702;9.410;2023-08-24T08:17:18;33.80;81.60
5870;DHT22;2961;47.702;9.410;2023-08-24T08:19:47;33.20;83.30
5870;DHT22;2961;47.702;9.410;2023-08-24T08:22:17;32.40;83.30
5870;DHT22;2961;47.702;9.410;2023-08-24T08:24:44;32.40;84.40
5870;DHT22;2961;47.702;9.410;2023-08-24T08:27:10;32.20;84.10
5870;DHT22;2961;47.702;9.410;2023-08-24T08:29:37;32.00;85.00
5870;DHT22;2961;47.702;9.410;2023-08-24T08:32:05;31.90;85.90
5870;DHT22;2961;47.702;9.410;2023-08-24T08:34:33;31.60;86.60
5870;DHT22;2961;47.702;9.410;2023-08-24T08:37:01;31.40;87.40
5870;DHT22;2961;47.702;9.410;2023-08-24T08:39:28;30.90;89.00
5870;DHT22;2961;47.702;9.410;2023-08-24T08:41:55;30.30;90.00
5870;DHT22;2961;47.702;9.410;2023-08-24T08:44:23;29.80;91.20
5870;DHT22;2961;47.702;9.410;2023-08-24T08:46:51;29.60;91.50
5870;DHT22;2961;47.702;9.410;2023-08-24T08:49:19;29.60;91.20
5870;DHT22;2961;47.702;9.410;2023-08-24T08:51:46;29.40;92.10
5870;DHT22;2961;47.702;9.410;2023-08-24T08:54:15;29.20;92.60
5870;DHT22;2961;47.702;9.410;2023-08-24T08:56:42;29.00;92.00
5870;DHT22;2961;47.702;9.410;2023-08-24T08:59:11;28.80;92.50
5870;DHT22;2961;47.702;9.410;2023-08-24T09:01:41;28.80;92.80
5870;DHT22;2961;47.702;9.410;2023-08-24T09:04:10;28.90;93.20
5870;DHT22;2961;47.702;9.410;2023-08-24T09:06:37;29.10;94.30
5870;DHT22;2961;47.702;9.410;2023-08-24T09:09:04;29.20;94.10
5870;DHT22;2961;47.702;9.410;2023-08-24T09:11:33;29.40;93.50
5870;DHT22;2961;47.702;9.410;2023-08-24T09:13:59;29.70;93.50
5870;DHT22;2961;47.702;9.410;2023-08-24T09:16:29;29.70;92.80
5870;DHT22;2961;47.702;9.410;2023-08-24T09:18:56;29.60;92.60
5870;DHT22;2961;47.702;9.410;2023-08-24T09:21:23;29.60;92.70
5870;DHT22;2961;47.702;9.410;2023-08-24T09:23:53;29.60;92.90
5870;DHT22;2961;47.702;9.410;2023-08-24T09:26:27;29.60;93.00
5870;DHT22;2961;47.702;9.410;2023-08-24T09:28:56;29.50;92.60
5870;DHT22;2961;47.702;9.410;2023-08-24T09:31:23;29.40;92.70
5870;DHT22;2961;47.702;9.410;2023-08-24T09:33:49;29.50;93.10
5870;DHT22;2961;47.702;9.410;2023-08-24T09:36:18;29.50;92.30
5870;DHT22;2961;47.702;9.410;2023-08-24T09:38:47;29.60;92.70
5870;DHT22;2961;47.702;9.410;2023-08-24T09:41:15;29.70;92.70
5870;DHT22;2961;47.702;9.410;2023-08-24T09:43:42;29.70;92.80
5870;DHT22;2961;47.702;9.410;2023-08-24T09:46:10;29.90;92.50
5870;DHT22;2961;47.702;9.410;2023-08-24T09:48:37;29.90;92.40
5870;DHT22;2961;47.702;9.410;2023-08-24T09:51:04;29.80;91.90
5870;DHT22;2961;47.702;9.410;2023-08-24T09:53:33;29.90;91.90
5870;DHT22;2961;47.702;9.410;2023-08-24T09:56:03;29.90;92.40
5870;DHT22;2961;47.702;9.410;2023-08-24T09:58:32;29.90;93.60
5870;DHT22;2961;47.702;9.410;2023-08-24T10:01:02;30.00;94.20
5870;DHT22;2961;47.702;9.410;2023-08-24T10:03:32;30.00;94.30
5870;DHT22;2961;47.702;9.410;2023-08-24T10:05:59;30.10;94.80
5870;DHT22;2961;47.702;9.410;2023-08-24T10:08:27;30.20;94.20
5870;DHT22;2961;47.702;9.410;2023-08-24T10:10:56;30.20;94.20
5870;DHT22;2961;47.702;9.410;2023-08-24T10:13:32;30.20;94.50
5870;DHT22;2961;47.702;9.410;2023-08-24T10:16:04;30.10;95.20
5870;DHT22;2961;47.702;9.410;2023-08-24T10:18:33;30.20;95.20
5870;DHT22;2961;47.702;9.410;2023-08-24T10:21:00;30.30;95.30
5870;DHT22;2961;47.702;9.410;2023-08-24T10:23:29;30.30;95.20
5870;DHT22;2961;47.702;9.410;2023-08-24T10:25:57;30.40;94.80
5870;DHT22;2961;47.702;9.410;2023-08-24T10:28:26;30.40;94.70
5870;DHT22;2961;47.702;9.410;2023-08-24T10:30:54;30.30;94.50
5870;DHT22;2961;47.702;9.410;2023-08-24T10:33:22;30.20;95.40
5870;DHT22;2961;47.702;9.410;2023-08-24T10:35:51;30.20;95.70
5870;DHT22;2961;47.702;9.410;2023-08-24T10:38:24;30.20;94.80
5870;DHT22;2961;47.702;9.410;2023-08-24T10:40:52;30.10;95.20
5870;DHT22;2961;47.702;9.410;2023-08-24T10:43:19;30.10;95.00
5870;DHT22;2961;47.702;9.410;2023-08-24T10:46:01;30.10;94.70
5870;DHT22;2961;47.702;9.410;2023-08-24T10:48:30;30.10;94.80
5870;DHT22;2961;47.702;9.410;2023-08-24T10:51:20;30.30;95.50
5870;DHT22;2961;47.702;9.410;2023-08-24T10:53:52;30.40;94.90
5870;DHT22;2961;47.702;9.410;2023-08-24T10:56:19;30.40;94.70
5870;DHT22;2961;47.702;9.410;2023-08-24T10:58:47;30.40;94.50
5870;DHT22;2961;47.702;9.410;2023-08-24T11:01:34;30.40;94.70
5870;DHT22;2961;47.702;9.410;2023-08-24T11:04:05;30.50;94.80
5870;DHT22;2961;47.702;9.410;2023-08-24T11:06:33;30.60;95.10
5870;DHT22;2961;47.702;9.410;2023-08-24T11:09:07;30.70;94.40
5870;DHT22;2961;47.702;9.410;2023-08-24T11:11:39;30.70;94.00
5870;DHT22;2961;47.702;9.410;2023-08-24T11:14:17;30.70;94.50
5870;DHT22;2961;47.702;9.410;2023-08-24T11:16:46;30.90;93.60
5870;DHT22;2961;47.702;9.410;2023-08-24T11:19:13;31.00;94.00
5870;DHT22;2961;47.702;9.410;2023-08-24T11:21:43;31.00;93.70
5870;DHT22;2961;47.702;9.410;2023-08-24T11:24:13;31.00;93.20
5870;DHT22;2961;47.702;9.410;2023-08-24T11:26:41;31.00;93.80
5870;DHT22;2961;47.702;9.410;2023-08-24T11:29:08;31.10;92.70
5870;DHT22;2961;47.702;9.410;2023-08-24T11:31:35;31.00;92.50
5870;DHT22;2961;47.702;9.410;2023-08-24T11:34:02;31.00;93.50
5870;DHT22;2961;47.702;9.410;2023-08-24T11:36:30;31.20;92.90
5870;DHT22;2961;47.702;9.410;2023-08-24T11:38:59;31.40;92.80
5870;DHT22;2961;47.702;9.410;2023-08-24T11:41:26;31.60;91.80
5870;DHT22;2961;47.702;9.410;2023-08-24T11:44:02;31.70;92.70
5870;DHT22;2961;47.702;9.410;2023-08-24T11:46:29;31.80;92.40
5870;DHT22;2961;47.702;9.410;2023-08-24T11:48:57;31.90;92.00
5870;DHT22;2961;47.702;9.410;2023-08-24T11:51:25;31.90;92.20
5870;DHT22;2961;47.702;9.410;2023-08-24T11:53:52;32.00;91.60
5870;DHT22;2961;47.702;9.410;2023-08-24T11:56:20;31.90;91.10
5870;DHT22;2961;47.702;9.410;2023-08-24T11:58:50;31.90;91.10
5870;DHT22;2961;47.702;9.410;2023-08-24T12:01:17;32.00;91.40
5870;DHT22;2961;47.702;9.410;2023-08-24T12:03:44;32.10;91.20
5870;DHT22;2961;47.702;9.410;2023-08-24T12:06:12;32.20;91.30
5870;DHT22;2961;47.702;9.410;2023-08-24T12:08:40;32.30;91.60
5870;DHT22;2961;47.702;9.410;2023-08-24T12:11:15;32.50;90.40
5870;DHT22;2961;47.702;9.410;2023-08-24T12:13:45;32.50;90.60
5870;DHT22;2961;47.702;9.410;2023-08-24T12:16:13;32.50;90.60
5870;DHT22;2961;47.702;9.410;2023-08-24T12:18:54;32.50;90.50
5870;DHT22;2961;47.702;9.410;2023-08-24T12:21:21;32.70;90.70
5870;DHT22;2961;47.702;9.410;2023-08-24T12:23:58;32.70;89.50
5870;DHT22;2961;47.702;9.410;2023-08-24T12:26:26;32.70;90.90
5870;DHT22;2961;47.702;9.410;2023-08-24T12:28:59;32.90;90.30
5870;DHT22;2961;47.702;9.410;2023-08-24T12:31:26;33.00;89.60
5870;DHT22;2961;47.702;9.410;2023-08-24T12:34:01;33.20;90.00
5870;DHT22;2961;47.702;9.410;2023-08-24T12:36:28;33.20;90.70
5870;DHT22;2961;47.702;9.410;2023-08-24T12:38:55;33.20;89.80
5870;DHT22;2961;47.702;9.410;2023-08-24T12:41:22;33.30;90.10
5870;DHT22;2961;47.702;9.410;2023-08-24T12:43:50;33.30;88.90
5870;DHT22;2961;47.702;9.410;2023-08-24T12:46:18;33.40;90.00
5870;DHT22;2961;47.702;9.410;2023-08-24T12:48:45;33.50;87.60
5870;DHT22;2961;47.702;9.410;2023-08-24T12:51:12;33.60;87.40
5870;DHT22;2961;47.702;9.410;2023-08-24T12:53:39;33.70;89.60
5870;DHT22;2961;47.702;9.410;2023-08-24T12:56:06;33.70;88.20
5870;DHT22;2961;47.702;9.410;2023-08-24T12:58:33;33.60;89.40
5870;DHT22;2961;47.702;9.410;2023-08-24T13:00:59;33.50;90.40
5870;DHT22;2961;47.702;9.410;2023-08-24T13:03:28;33.30;90.40
5870;DHT22;2961;47.702;9.410;2023-08-24T13:05:54;33.20;90.40
5870;DHT22;2961;47.702;9.410;2023-08-24T13:08:21;33.20;90.30
5870;DHT22;2961;47.702;9.410;2023-08-24T13:10:48;33.20;90.20
5870;DHT22;2961;47.702;9.410;2023-08-24T13:13:16;33.00;90.60
5870;DHT22;2961;47.702;9.410;2023-08-24T13:15:43;32.90;90.50
5870;DHT22;2961;47.702;9.410;2023-08-24T13:18:09;32.90;91.00
5870;DHT22;2961;47.702;9.410;2023-08-24T13:20:38;33.00;91.50
5870;DHT22;2961;47.702;9.410;2023-08-24T13:23:04;33.00;91.20
5870;DHT22;2961;47.702;9.410;2023-08-24T13:25:31;32.90;91.30
5870;DHT22;2961;47.702;9.410;2023-08-24T13:27:58;32.90;91.70
5870;DHT22;2961;47.702;9.410;2023-08-24T13:30:25;32.80;92.40
5870;DHT22;2961;47.702;9.410;2023-08-24T13:32:52;32.70;92.30
5870;DHT22;2961;47.702;9.410;2023-08-24T13:35:19;32.70;91.60
5870;DHT22;2961;47.702;9.410;2023-08-24T13:37:48;32.80;91.90
5870;DHT22;2961;47.702;9.410;2023-08-24T13:40:16;32.80;91.10
5870;DHT22;2961;47.702;9.410;2023-08-24T13:42:44;32.60;90.80
5870;DHT22;2961;47.702;9.410;2023-08-24T13:45:11;32.70;91.20
5870;DHT22;2961;47.702;9.410;2023-08-24T13:47:38;32.70;90.60
5870;DHT22;2961;47.702;9.410;2023-08-24T13:50:05;32.80;91.10
5870;DHT22;2961;47.702;9.410;2023-08-24T13:52:33;32.80;90.30
5870;DHT22;2961;47.702;9.410;2023-08-24T13:55:01;32.70;89.50
5870;DHT22;2961;47.702;9.410;2023-08-24T13:57:29;32.70;90.40
5870;DHT22;2961;47.702;9.410;2023-08-24T13:59:56;32.70;90.30
5870;DHT22;2961;47.702;9.410;2023-08-24T14:02:23;32.70;90.60
5870;DHT22;2961;47.702;9.410;2023-08-24T14:04:49;32.70;90.40
5870;DHT22;2961;47.702;9.410;2023-08-24T14:07:16;32.60;91.60
5870;DHT22;2961;47.702;9.410;2023-08-24T14:09:43;32.50;91.70
5870;DHT22;2961;47.702;9.410;2023-08-24T14:12:11;32.50;91.80
5870;DHT22;2961;47.702;9.410;2023-08-24T14:14:38;32.50;91.50
5870;DHT22;2961;47.702;9.410;2023-08-24T14:17:05;32.50;91.40
5870;DHT22;2961;47.702;9.410;2023-08-24T14:19:32;32.50;91.40
5870;DHT22;2961;47.702;9.410;2023-08-24T14:21:59;32.50;91.60
5870;DHT22;2961;47.702;9.410;2023-08-24T14:24:25;32.50;91.80
5870;DHT22;2961;47.702;9.410;2023-08-24T14:26:52;32.60;91.80
5870;DHT22;2961;47.702;9.410;2023-08-24T14:29:20;32.60;91.50
5870;DHT22;2961;47.702;9.410;2023-08-24T14:31:47;32.70;92.10
5870;DHT22;2961;47.702;9.410;2023-08-24T14:34:14;32.70;91.70
5870;DHT22;2961;47.702;9.410;2023-08-24T14:36:41;32.60;91.90
5870;DHT22;2961;47.702;9.410;2023-08-24T14:39:07;32.60;91.70
5870;DHT22;2961;47.702;9.410;2023-08-24T14:41:35;32.70;91.50
5870;DHT22;2961;47.702;9.410;2023-08-24T14:44:02;32.70;90.90
5870;DHT22;2961;47.702;9.410;2023-08-24T14:46:30;32.70;91.40
5870;DHT22;2961;47.702;9.410;2023-08-24T14:48:58;32.70;90.70
5870;DHT22;2961;47.702;9.410;2023-08-24T14:51:25;32.80;91.10
5870;DHT22;2961;47.702;9.410;2023-08-24T14:53:51;32.90;91.20
5870;DHT22;2961;47.702;9.410;2023-08-24T14:56:18;32.90;90.70
5870;DHT22;2961;47.702;9.410;2023-08-24T14:58:45;33.00;90.30
5870;DHT22;2961;47.702;9.410;2023-08-24T15:01:12;33.00;91.10
5870;DHT22;2961;47.702;9.410;2023-08-24T15:03:40;33.00;88.40
5870;DHT22;2961;47.702;9.410;2023-08-24T15:06:22;33.00;90.30
5870;DHT22;2961;47.702;9.410;2023-08-24T15:08:49;33.10;90.50
5870;DHT22;2961;47.702;9.410;2023-08-24T15:11:18;33.20;89.10
5870;DHT22;2961;47.702;9.410;2023-08-24T15:13:46;33.20;89.40
5870;DHT22;2961;47.702;9.410;2023-08-24T15:16:13;33.20;89.70
5870;DHT22;2961;47.702;9.410;2023-08-24T15:18:41;33.30;87.00
5870;DHT22;2961;47.702;9.410;2023-08-24T15:21:08;33.20;84.10
5870;DHT22;2961;47.702;9.410;2023-08-24T15:23:35;33.20;86.20
5870;DHT22;2961;47.702;9.410;2023-08-24T15:26:02;33.10;87.90
5870;DHT22;2961;47.702;9.410;2023-08-24T15:28:35;33.10;89.40
5870;DHT22;2961;47.702;9.410;2023-08-24T15:31:02;33.10;90.30
5870;DHT22;2961;47.702;9.410;2023-08-24T15:33:30;33.00;90.00
5870;DHT22;2961;47.702;9.410;2023-08-24T15:35:58;32.90;89.30
5870;DHT22;2961;47.702;9.410;2023-08-24T15:38:25;32.80;89.00
5870;DHT22;2961;47.702;9.410;2023-08-24T15:40:52;32.90;89.20
5870;DHT22;2961;47.702;9.410;2023-08-24T15:43:19;33.00;89.60
5870;DHT22;2961;47.702;9.410;2023-08-24T15:45:49;33.00;90.00
5870;DHT22;2961;47.702;9.410;2023-08-24T15:48:16;32.80;88.40
5870;DHT22;2961;47.702;9.410;2023-08-24T15:50:43;32.80;89.70
5870;DHT22;2961;47.702;9.410;2023-08-24T15:53:11;32.80;89.80
5870;DHT22;2961;47.702;9.410;2023-08-24T15:55:38;32.80;88.00
5870;DHT22;2961;47.702;9.410;2023-08-24T15:58:04;32.70;89.00
5870;DHT22;2961;47.702;9.410;2023-08-24T16:00:31;32.80;88.40
5870;DHT22;2961;47.702;9.410;2023-08-24T16:02:59;32.70;89.20
5870;DHT22;2961;47.702;9.410;2023-08-24T16:05:28;32.70;88.30
5870;DHT22;2961;47.702;9.410;2023-08-24T16:07:55;32.70;87.60
5870;DHT22;2961;47.702;9.410;2023-08-24T16:10:24;32.60;87.60